地図

経路データ

SID SEASON NUMBER BASIN SUBBASIN NAME ISO_TIME NATURE LAT LON WMO_WIND WMO_PRES WMO_AGENCY TRACK_TYPE DIST2LAND LANDFALL IFLAG USA_AGENCY USA_ATCF_ID USA_LAT USA_LON USA_RECORD USA_STATUS USA_WIND USA_PRES USA_SSHS USA_R34_NE USA_R34_SE USA_R34_SW USA_R34_NW USA_R50_NE USA_R50_SE USA_R50_SW USA_R50_NW USA_R64_NE USA_R64_SE USA_R64_SW USA_R64_NW USA_POCI USA_ROCI USA_RMW USA_EYE TOKYO_LAT TOKYO_LON TOKYO_GRADE TOKYO_WIND TOKYO_PRES TOKYO_R50_DIR TOKYO_R50_LONG TOKYO_R50_SHORT TOKYO_R30_DIR TOKYO_R30_LONG TOKYO_R30_SHORT TOKYO_LAND CMA_LAT CMA_LON CMA_CAT CMA_WIND CMA_PRES HKO_LAT HKO_LON HKO_CAT HKO_WIND HKO_PRES NEWDELHI_LAT NEWDELHI_LON NEWDELHI_GRADE NEWDELHI_WIND NEWDELHI_PRES NEWDELHI_CI NEWDELHI_DP NEWDELHI_POCI REUNION_LAT REUNION_LON REUNION_TYPE REUNION_WIND REUNION_PRES REUNION_TNUM REUNION_CI REUNION_RMW REUNION_R34_NE REUNION_R34_SE REUNION_R34_SW REUNION_R34_NW REUNION_R50_NE REUNION_R50_SE REUNION_R50_SW REUNION_R50_NW REUNION_R64_NE REUNION_R64_SE REUNION_R64_SW REUNION_R64_NW BOM_LAT BOM_LON BOM_TYPE BOM_WIND BOM_PRES BOM_TNUM BOM_CI BOM_RMW BOM_R34_NE BOM_R34_SE BOM_R34_SW BOM_R34_NW BOM_R50_NE BOM_R50_SE BOM_R50_SW BOM_R50_NW BOM_R64_NE BOM_R64_SE BOM_R64_SW BOM_R64_NW BOM_ROCI BOM_POCI BOM_EYE BOM_POS_METHOD BOM_PRES_METHOD NADI_LAT NADI_LON NADI_CAT NADI_WIND NADI_PRES WELLINGTON_LAT WELLINGTON_LON WELLINGTON_WIND WELLINGTON_PRES DS824_LAT DS824_LON DS824_STAGE DS824_WIND DS824_PRES TD9636_LAT TD9636_LON TD9636_STAGE TD9636_WIND TD9636_PRES TD9635_LAT TD9635_LON TD9635_WIND TD9635_PRES TD9635_ROCI NEUMANN_LAT NEUMANN_LON NEUMANN_CLASS NEUMANN_WIND NEUMANN_PRES MLC_LAT MLC_LON MLC_CLASS MLC_WIND MLC_PRES USA_GUST BOM_GUST BOM_GUST_PER REUNION_GUST REUNION_GUST_PER USA_SEAHGT USA_SEARAD_NE USA_SEARAD_SE USA_SEARAD_SW USA_SEARAD_NW STORM_SPEED STORM_DIR
1952005S09073 1952 1 SI MM NOT_NAMED 1952-01-05 06:00:00 TS -8.80000 72.9000 main 1850 1850 O________OO___ jtwc_sh SH051952 -8.80000 72.9000 -1 -8.80000 72.9000 TC 25 -8.80000 72.9000 7 6 270
1952005S09073 1952 1 SI MM NOT_NAMED 1952-01-05 09:00:00 TS -8.79801 72.5994 main 1865 1865 P________PP___ SH051952 -8.80003 72.6100 -1 -8.80003 72.6100 TC 25 -8.79396 72.5781 7 6 270
1952005S09073 1952 1 SI MM NOT_NAMED 1952-01-05 12:00:00 TS -8.79675 72.2850 main 1881 1881 O________OP___ jtwc_sh SH051952 -8.80000 72.3000 -1 -8.80000 72.3000 TC 25 -8.79024 72.2550 7 6 270
1952005S09073 1952 1 SI MM NOT_NAMED 1952-01-05 15:00:00 TS -8.79712 71.9481 main 1902 1902 P________PP___ SH051952 -8.79999 71.9575 -1 -8.79999 71.9575 TC 25 -8.79139 71.9294 7 7 270
1952005S09073 1952 1 SI MM NOT_NAMED 1952-01-05 18:00:00 TS -8.80000 71.6000 main 1918 1918 O________OO___ jtwc_sh SH051952 -8.80000 71.6000 -1 -8.80000 71.6000 TC 25 -8.80000 71.6000 2 7 270
1952005S09073 1952 1 SI MM NOT_NAMED 1952-01-05 21:00:00 TS -8.80088 71.2551 main 1933 1900 P________PP___ SH051952 -8.79247 71.2500 -1 -8.79247 71.2500 TC 30 -8.81769 71.2653 2 7 269
1952005S09073 1952 1 SI MM NOT_NAMED 1952-01-06 00:00:00 TS -8.81411 70.9075 main 1900 1869 O________OP___ jtwc_sh SH051952 -8.80000 70.9000 -1 -8.80000 70.9000 TC 35 -8.84232 70.9225 2 7 265
1952005S09073 1952 1 SI MM NOT_NAMED 1952-01-06 03:00:00 TS -8.85690 70.5612 main 1869 1837 P________PP___ SH051952 -8.84995 70.5575 -1 -8.84995 70.5575 TC 35 -8.87079 70.5684 2 7 263
1952005S09073 1952 1 SI MM NOT_NAMED 1952-01-06 06:00:00 TS -8.90000 70.2000 main 1837 1806 O________OO___ jtwc_sh SH051952 -8.90000 70.2000 -1 -8.90000 70.2000 TC 35 -8.90000 70.2000 2 7 266
1952005S09073 1952 1 SI MM NOT_NAMED 1952-01-06 09:00:00 TS -8.90697 69.8070 main 1806 1775 P________PP___ SH051952 -8.89998 69.8074 -1 -8.89998 69.8074 TC 35 -8.92094 69.8062 2 8 269
1952005S09073 1952 1 SI MM NOT_NAMED 1952-01-06 12:00:00 TS -8.91417 69.4000 main 1775 1745 O________OP___ jtwc_sh SH051952 -8.90000 69.4000 -1 -8.90000 69.4000 TC 35 -8.94251 69.3999 2 8 267
1952005S09073 1952 1 SI MM NOT_NAMED 1952-01-06 15:00:00 TS -8.95093 68.9929 main 1737 1707 P________PP___ SH051952 -8.94248 68.9925 -1 -8.94248 68.9925 TC 35 -8.96782 68.9937 2 8 264
1952005S09073 1952 1 SI MM NOT_NAMED 1952-01-06 18:00:00 TS -9.00000 68.6000 main 1707 1685 O________OO___ jtwc_sh SH051952 -9.00000 68.6000 -1 -9.00000 68.6000 TC 35 -9.00000 68.6000 2 7 263
1952005S09073 1952 1 SI MM NOT_NAMED 1952-01-06 21:00:00 TS -9.04614 68.2429 main 1678 1648 P________PP___ SH051952 -9.04994 68.2425 -1 -9.04994 68.2425 TC 35 -9.03852 68.2437 2 7 262
1952005S09073 1952 1 SI MM NOT_NAMED 1952-01-07 00:00:00 TS -9.09490 67.9000 main 1648 1627 O________OP___ jtwc_sh SH051952 -9.10000 67.9000 -1 -9.10000 67.9000 TC 35 -9.08469 67.8999 2 7 262
1952005S09073 1952 1 SI MM NOT_NAMED 1952-01-07 03:00:00 TS -9.14614 67.5570 main 1627 1575 P________PP___ SH051952 -9.14994 67.5575 -1 -9.14994 67.5575 TC 35 -9.13852 67.5562 2 8 257
1952005S09073 1952 1 SI MM NOT_NAMED 1952-01-07 06:00:00 TS -9.26923 67.1231 reunion main 1575 1539 O____O___OO___ jtwc_sh SH051952 -9.20000 67.2000 -1 -10.1000 66.2000 99 9.90000 -9.20000 67.2000 TC 35 -9.20000 67.2000 2 9 256
1952005S09073 1952 1 SI MM NOT_NAMED 1952-01-07 09:00:00 TS -9.36923 66.6761 main 1539 1503 P____P___PP___ SH051952 -9.24248 66.8075 -1 -10.1105 66.1234 99 -9.24248 66.8075 TC 35 -9.26372 66.8103 2 9 257
1952005S09073 1952 1 SI MM NOT_NAMED 1952-01-07 12:00:00 TS -9.46512 66.2387 main 1496 1461 O____P___OP___ jtwc_sh SH051952 -9.30000 66.4000 -1 -10.1236 66.0422 99 -9.30000 66.4000 TC 35 -9.33497 66.4074 2 9 257
1952005S09073 1952 1 SI MM NOT_NAMED 1952-01-07 15:00:00 TS -9.56970 65.8268 main 1461 1443 P____P___PP___ SH051952 -9.39248 65.9925 -1 -10.1418 65.9518 99 -9.39248 65.9925 TC 35 -9.41372 66.0009 2 8 256
1952005S09073 1952 1 SI MM NOT_NAMED 1952-01-07 18:00:00 TS -9.64891 65.4784 main 1443 1415 O____P___OO___ jtwc_sh SH051952 -9.50000 65.6000 -1 -10.1677 65.8477 99 -9.50000 65.6000 TC 35 -9.50000 65.6000 2 7 256
1952005S09073 1952 1 SI MM NOT_NAMED 1952-01-07 21:00:00 TS -9.72767 65.1773 main 1415 1387 P____P___PP___ SH051952 -9.59992 65.2500 -1 -10.2040 65.7250 99 -9.59992 65.2500 TC 35 -9.58037 65.2298 2 6 254
1952005S09073 1952 1 SI MM NOT_NAMED 1952-01-08 00:00:00 TS -9.81479 64.9004 main 1387 1360 O____P___OP___ jtwc_sh SH051952 -9.70000 64.9000 -1 -10.2530 65.5793 99 -9.70000 64.9000 TC 35 -9.66963 64.8647 2 6 254
1952005S09073 1952 1 SI MM NOT_NAMED 1952-01-08 03:00:00 TS -9.88462 64.6068 main 1360 1333 P____P___PP___ SH051952 -9.79245 64.5149 -1 -10.3175 65.4059 99 -9.79245 64.5149 TC 35 -9.77409 64.4923 2 7 256
1952005S09073 1952 1 SI MM NOT_NAMED 1952-01-08 06:00:00 TS -9.97143 64.2571 reunion main 1333 1296 O____O___OO___ jtwc_sh SH051952 -9.90000 64.1000 -1 -10.4000 65.2000 99 9.90000 -9.90000 64.1000 TC 35 -9.90000 64.1000 2 8 256
1952005S09073 1952 1 SI MM NOT_NAMED 1952-01-08 09:00:00 TS -10.0772 63.8011 main 1296 1255 P________PP___ SH051952 -10.0350 63.6575 -1 99 -10.0350 63.6575 TC 35 -10.0414 63.6553 2 11 258
1952005S09073 1952 1 SI MM NOT_NAMED 1952-01-08 12:00:00 TS -10.2017 63.1975 main 1255 1215 O________OP___ jtwc_sh SH051952 -10.2000 63.2000 -1 99 -10.2000 63.2000 TC 35 -10.2052 63.1925 2 11 254
1952005S09073 1952 1 SI MM NOT_NAMED 1952-01-08 15:00:00 TS -10.3871 62.7344 main 1210 1171 P________PP___ SH051952 -10.3850 62.7350 -1 99 -10.3850 62.7350 TC 35 -10.3914 62.7334 2 10 246
1952005S09073 1952 1 SI MM NOT_NAMED 1952-01-08 18:00:00 TS -10.6000 62.3000 main 1171 1133 O________OO___ jtwc_sh SH051952 -10.6000 62.3000 -1 99 -10.6000 62.3000 TC 35 -10.6000 62.3000 2 9 240
1952005S09073 1952 1 SI MM NOT_NAMED 1952-01-08 21:00:00 TS -10.8404 61.9263 main 1133 1090 P________PP___ SH051952 -10.8424 61.9349 -1 99 -10.8424 61.9349 TC 35 -10.8364 61.9091 2 9 235
1952005S09073 1952 1 SI MM NOT_NAMED 1952-01-09 00:00:00 TS -11.0974 61.5825 main 1090 1057 O________OP___ jtwc_sh SH051952 -11.1000 61.6000 -1 99 -11.1000 61.6000 TC 35 -11.0923 61.5476 2 9 233
1952005S09073 1952 1 SI MM NOT_NAMED 1952-01-09 03:00:00 TS -11.3557 61.2324 main 1043 1010 P________PP___ SH051952 -11.3575 61.2425 -1 99 -11.3575 61.2425 TC 35 -11.3520 61.2122 2 8 233
1952005S09073 1952 1 SI MM NOT_NAMED 1952-01-09 06:00:00 TS -11.6000 60.9000 reunion main 1010 979 O________OO___ jtwc_sh SH051952 -11.6000 60.9000 -1 99 -11.6000 60.9000 TC 35 -11.6000 60.9000 2 8 234
1952005S09073 1952 1 SI MM NOT_NAMED 1952-01-09 09:00:00 TS -11.8070 60.5937 main 979 948 P________PP___ SH051952 -11.8075 60.5849 -1 99 -11.8075 60.5849 TC 35 -11.8060 60.6112 2 7 235
1952005S09073 1952 1 SI MM NOT_NAMED 1952-01-09 12:00:00 TS -11.9999 60.3140 main 948 920 O________OP___ jtwc_sh SH051952 -12.0000 60.3000 -1 99 -12.0000 60.3000 TC 35 -11.9997 60.3420 2 6 233
1952005S09073 1952 1 SI MM NOT_NAMED 1952-01-09 15:00:00 TS -12.1928 60.0639 main 920 890 P________PP___ SH051952 -12.1924 60.0574 -1 99 -12.1924 60.0574 TC 35 -12.1935 60.0768 2 6 231
1952005S09073 1952 1 SI MM NOT_NAMED 1952-01-09 18:00:00 TS -12.4000 59.8000 main 890 861 O________OO___ jtwc_sh SH051952 -12.4000 59.8000 -1 99 -12.4000 59.8000 TC 35 -12.4000 59.8000 2 7 233
1952005S09073 1952 1 SI MM NOT_NAMED 1952-01-09 21:00:00 TS -12.6389 59.4627 main 861 819 P________PP___ SH051952 -12.6425 59.4575 -1 99 -12.6425 59.4575 TC 30 -12.6317 59.4732 2 8 234
1952005S09073 1952 1 SI MM NOT_NAMED 1952-01-10 00:00:00 TS -12.8926 59.1117 main 819 792 O________OP___ jtwc_sh SH051952 -12.9000 59.1000 -1 99 -12.9000 59.1000 TC 25 -12.8777 59.1351 2 8 233
1952005S09073 1952 1 SI MM NOT_NAMED 1952-01-10 03:00:00 TS -13.1399 58.7914 main 792 754 P________PP___ SH051952 -13.1425 58.7849 -1 99 -13.1425 58.7849 TC 25 -13.1348 58.8044 2 8 230
1952005S09073 1952 1 SI MM NOT_NAMED 1952-01-10 06:00:00 TS -13.4000 58.5000 reunion main 754 718 O________OO___ jtwc_sh SH051952 -13.4000 58.5000 -1 99 -13.4000 58.5000 TC 25 -13.4000 58.5000 1 8 224
1952005S09073 1952 1 SI MM NOT_NAMED 1952-01-10 09:00:00 TS -13.6933 58.2360 main 718 683 P________PP___ SH051952 -13.7000 58.2350 -1 99 -13.7000 58.2350 TC 25 -13.6798 58.2380 1 8 219
1952005S09073 1952 1 SI MM NOT_NAMED 1952-01-10 12:00:00 TS -13.9883 58.0016 main 683 660 O________OP___ jtwc_sh SH051952 -14.0000 58.0000 -1 99 -14.0000 58.0000 TC 25 -13.9648 58.0049 1 7 217
1952005S09073 1952 1 SI MM NOT_NAMED 1952-01-10 15:00:00 TS -14.2574 57.7931 main 649 626 P________PP___ SH051952 -14.2650 57.7924 -1 99 -14.2650 57.7924 TC 25 -14.2424 57.7943 1 6 217
1952005S09073 1952 1 SI MM NOT_NAMED 1952-01-10 18:00:00 TS -14.5000 57.6000 main 626 604 O________OO___ jtwc_sh SH051952 -14.5000 57.6000 -1 99 -14.5000 57.6000 TC 25 -14.5000 57.6000 1 6 220
1952005S09073 1952 1 SI MM NOT_NAMED 1952-01-10 21:00:00 TS -14.7108 57.3971 main 604 582 P________PP___ SH051952 -14.7075 57.3925 -1 99 -14.7075 57.3925 TC 25 -14.7174 57.4063 1 5 214
1952005S09073 1952 1 SI MM NOT_NAMED 1952-01-11 00:00:00 TS -14.9386 57.2929 main 582 549 O________OP___ jtwc_sh SH051952 -14.9000 57.2000 -1 99 -14.9000 57.2000 TC 25 -14.9149 57.2272 1 6 214
1952005S09073 1952 1 SI MM NOT_NAMED 1952-01-11 03:00:00 TS -15.1688 57.0776 main 549 531 P________PP___ SH051952 -15.1000 57.0425 -1 99 -15.1000 57.0425 TC 25 -15.1049 57.0595 1 7 226
1952005S09073 1952 1 SI MM NOT_NAMED 1952-01-11 06:00:00 TS -15.4000 56.8000 reunion main 531 512 O____O___OO___ jtwc_sh SH051952 -15.3000 56.9000 -1 -15.8000 56.4000 99 9.90000 -15.3000 56.9000 TC 25 -15.3000 56.9000 1 7 228
1952005S09073 1952 1 SI MM NOT_NAMED 1952-01-11 09:00:00 TS -15.6302 56.5499 main 514 494 P____P___PP___ SH051952 -15.4925 56.7500 -1 -16.0311 56.2932 99 -15.4925 56.7500 TC 25 -15.5096 56.7507 1 6 223
1952005S09073 1952 1 SI MM NOT_NAMED 1952-01-11 12:00:00 TS -15.8457 56.3710 main 494 468 O____P___OP___ jtwc_sh SH051952 -15.7000 56.6000 -1 -16.2638 56.2092 99 -15.7000 56.6000 TC 25 -15.7274 56.6072 1 5 214
1952005S09073 1952 1 SI MM NOT_NAMED 1952-01-11 15:00:00 TS -16.0825 56.2301 main 468 450 P____P___PP___ SH051952 -15.9425 56.4574 -1 -16.4982 56.1393 99 -15.9425 56.4574 TC 30 -15.9565 56.4600 1 6 208
1952005S09073 1952 1 SI MM NOT_NAMED 1952-01-11 18:00:00 TS -16.3313 56.1045 main 450 422 O____P___OO___ jtwc_sh SH051952 -16.2000 56.3000 -1 -16.7346 56.0751 99 -16.2000 56.3000 TC 35 -16.2000 56.3000 2 6 207
1952005S09073 1952 1 SI MM NOT_NAMED 1952-01-11 21:00:00 TS -16.5777 55.9687 main 422 405 P____P___PP___ SH051952 -16.4425 56.1075 -1 -16.9729 56.0077 99 -16.4425 56.1075 TC 30 -16.4607 56.1023 2 6 208
1952005S09073 1952 1 SI MM NOT_NAMED 1952-01-12 00:00:00 TS -16.8357 55.8297 main 410 385 O____P___OP___ jtwc_sh SH051952 -16.7000 55.9000 -1 -17.2132 55.9286 99 -16.7000 55.9000 TC 25 -16.7351 55.8927 2 6 206
1952005S09073 1952 1 SI MM NOT_NAMED 1952-01-12 03:00:00 TS -17.1175 55.6895 main 385 362 P____P___PP___ SH051952 -17.0000 55.6925 -1 -17.4555 55.8289 99 -17.0000 55.6925 TC 30 -17.0170 55.6867 2 6 205
1952005S09073 1952 1 SI MM NOT_NAMED 1952-01-12 06:00:00 TS -17.4000 55.5500 reunion main 362 356 O____O___OO___ jtwc_sh SH051952 -17.3000 55.5000 -1 -17.7000 55.7000 99 9.90000 -17.3000 55.5000 TC 35 -17.3000 55.5000 2 6 209
1952005S09073 1952 1 SI MM NOT_NAMED 1952-01-12 09:00:00 TS -17.6490 55.3820 main 356 337 P____P___PP___ SH051952 -17.5500 55.3349 -1 -17.9172 55.4970 99 -17.5500 55.3349 TC 35 -17.5789 55.3612 2 6 212
1952005S09073 1952 1 SI MM NOT_NAMED 1952-01-12 12:00:00 TS -17.8976 55.2267 main 345 313 O____P___OP___ jtwc_sh SH051952 -17.8000 55.2000 -1 -18.1330 55.2649 99 -17.8000 55.2000 TC 35 -17.8573 55.2421 2 6 208
1952005S09073 1952 1 SI MM NOT_NAMED 1952-01-12 15:00:00 TS -18.1712 55.0883 main 313 292 P____P___PP___ SH051952 -18.1000 55.1074 -1 -18.3527 55.0114 99 -18.1000 55.1074 TC 35 -18.1320 55.1269 2 6 207
1952005S09073 1952 1 SI MM NOT_NAMED 1952-01-12 18:00:00 TS -18.4454 54.9361 main 293 262 O____P___OO___ jtwc_sh SH051952 -18.4000 55.0000 -1 -18.5817 54.7446 99 -18.4000 55.0000 TC 35 -18.4000 55.0000 2 6 213
1952005S09073 1952 1 SI MM NOT_NAMED 1952-01-12 21:00:00 TS -18.6984 54.7296 main 264 246 P____P___PP___ SH051952 -18.6575 54.8075 -1 -18.8254 54.4722 99 -18.6575 54.8075 TC 35 -18.6532 54.8312 2 6 219
1952005S09073 1952 1 SI MM NOT_NAMED 1952-01-13 00:00:00 TS -18.9473 54.5130 main 249 222 O____P___OP___ jtwc_sh SH051952 -18.9000 54.6000 -1 -19.0893 54.2020 99 -18.9000 54.6000 TC 35 -18.9001 54.6500 2 6 217
1952005S09073 1952 1 SI MM NOT_NAMED 1952-01-13 03:00:00 TS -19.2065 54.3239 main 226 203 P____P___PP___ SH051952 -19.1500 54.4424 -1 -19.3790 53.9420 99 -19.1500 54.4424 TC 35 -19.1469 54.4687 2 6 213
1952005S09073 1952 1 SI MM NOT_NAMED 1952-01-13 06:00:00 TS -19.4750 54.1500 reunion main 203 198 O____O___OO___ jtwc_sh SH051952 -19.4000 54.3000 -1 -19.7000 53.7000 99 9.90000 -19.4000 54.3000 TC 35 -19.4000 54.3000 2 6 211
1952005S09073 1952 1 SI MM NOT_NAMED 1952-01-13 09:00:00 TS -19.7535 53.9799 main 190 182 P____P___PP___ SH051952 -19.6425 54.1425 -1 -20.0696 53.4663 99 -19.6425 54.1425 TC 35 -19.6596 54.1684 2 7 208
1952005S09073 1952 1 SI MM NOT_NAMED 1952-01-13 12:00:00 TS -20.0496 53.8230 main 190 174 O____P___OP___ jtwc_sh SH051952 -19.9000 54.0000 -1 -20.4712 53.2424 99 -19.9000 54.0000 TC 35 -19.9273 54.0495 2 7 204
1952005S09073 1952 1 SI MM NOT_NAMED 1952-01-13 15:00:00 TS -20.3724 53.6948 main 174 169 P____P___PP___ SH051952 -20.1924 53.9073 -1 -20.8984 53.0336 99 -20.1924 53.9073 TC 35 -20.2064 53.9308 2 7 200
1952005S09073 1952 1 SI MM NOT_NAMED 1952-01-13 18:00:00 TS -20.7113 53.5612 main 172 172 O____P___OO___ jtwc_sh SH051952 -20.5000 53.8000 -1 -21.3450 52.8449 99 -20.5000 53.8000 TC 35 -20.5000 53.8000 2 7 204
1952005S09073 1952 1 SI MM NOT_NAMED 1952-01-13 21:00:00 TS -21.0461 53.3760 main 187 186 P____P___PP___ SH051952 -20.7925 53.6075 -1 -21.8048 52.6818 99 -20.7925 53.6075 TC 30 -20.7946 53.6073 2 8 207
1952005S09073 1952 1 SI MM NOT_NAMED 1952-01-14 00:00:00 TS -21.3941 53.1888 main 209 209 O____P___OP___ jtwc_sh SH051952 -21.1000 53.4000 -1 -22.2713 52.5495 99 -21.1000 53.4000 TC 25 -21.1053 53.4057 2 8 204
1952005S09073 1952 1 SI MM NOT_NAMED 1952-01-14 03:00:00 TS -21.7617 53.0300 main 240 240 P____P___PP___ SH051952 -21.4350 53.2201 -1 -22.7385 52.4537 99 -21.4350 53.2201 TC 25 -21.4383 53.2262 2 8 198
1952005S09073 1952 1 SI MM NOT_NAMED 1952-01-14 06:00:00 TS -22.1500 52.9250 reunion main 262 267 O____O___OO___ jtwc_sh SH051952 -21.8000 53.1000 -1 -23.2000 52.4000 99 9.90000 -21.8000 53.1000 TC 25 -21.8000 53.1000 1 8 188
1952005S09073 1952 1 SI MM NOT_NAMED 1952-01-14 09:00:00 TS -22.5608 52.9024 main 286 286 P____P___PP___ SH051952 -22.1850 53.0699 -1 -23.6772 52.4069 99 -22.1850 53.0699 TC 25 -22.1961 53.0629 1 8 178
1952005S09073 1952 1 SI MM NOT_NAMED 1952-01-14 12:00:00 TS -22.9946 52.9353 main 311 310 O____P___OP___ jtwc_sh SH051952 -22.6000 53.1000 -1 -24.1583 52.4596 99 -22.6000 53.1000 TC 25 -22.6199 53.0818 1 9 175
1952005S09073 1952 1 SI MM NOT_NAMED 1952-01-14 15:00:00 TS -23.4482 52.9921 main 333 333 P____P___PP___ SH051952 -23.0500 53.1424 -1 -24.6340 52.5487 99 -23.0500 53.1424 TC 25 -23.0587 53.1349 1 9 173
1952005S09073 1952 1 SI MM NOT_NAMED 1952-01-14 18:00:00 TS -23.8987 53.0662 main 368 368 O____P___OO___ jtwc_sh SH051952 -23.5000 53.2000 -1 -25.0948 52.6647 99 -23.5000 53.2000 TC 25 -23.5000 53.2000 1 9 172
1952005S09073 1952 1 SI MM NOT_NAMED 1952-01-14 21:00:00 TS -24.3130 53.1312 main 404 404 P____P___PP___ SH051952 -23.9000 53.2500 -1 -25.5312 52.7979 99 -23.9000 53.2500 TC 25 -23.9209 53.2270 1 8 171
1952005S09073 1952 1 SI MM NOT_NAMED 1952-01-15 00:00:00 TS -24.7191 53.2004 main 436 436 O____P___OP___ jtwc_sh SH051952 -24.3000 53.3000 -1 -25.9338 52.9383 99 -24.3000 53.3000 TC 25 -24.3424 53.2632 1 8 171
1952005S09073 1952 1 SI MM NOT_NAMED 1952-01-15 03:00:00 TS -25.1365 53.2660 main 471 471 P____P___PP___ SH051952 -24.7425 53.3352 -1 -26.2932 53.0758 99 -24.7425 53.3352 TC 25 -24.7677 53.3178 1 8 171
1952005S09073 1952 1 SI MM NOT_NAMED 1952-01-15 06:00:00 TS -25.5500 53.3500 reunion main 507 511 O____O___OO___ jtwc_sh SH051952 -25.2000 53.4000 -1 -26.6000 53.2000 99 9.90000 -25.2000 53.4000 TC 25 -25.2000 53.4000 1 8 167
1952005S09073 1952 1 SI MM NOT_NAMED 1952-01-15 09:00:00 TS -25.9487 53.4744 main 545 545 P____P___PP___ SH051952 -25.6500 53.5349 -1 -26.8477 53.3028 99 -25.6500 53.5349 TC 25 -25.6470 53.5250 1 8 163
1952005S09073 1952 1 SI MM NOT_NAMED 1952-01-15 12:00:00 TS -26.3354 53.6154 main 584 584 O____P___OP___ jtwc_sh SH051952 -26.1000 53.7000 -1 -27.0413 53.3846 99 -26.1000 53.7000 TC 25 -26.1001 53.6770 1 8 162
1952005S09073 1952 1 SI MM NOT_NAMED 1952-01-15 15:00:00 TS -26.7142 53.7510 main 619 619 P____P___PP___ SH051952 -26.5575 53.8575 -1 -27.1885 53.4484 99 -26.5575 53.8575 TC 25 -26.5532 53.8407 1 8 163
1952005S09073 1952 1 SI MM NOT_NAMED 1952-01-15 18:00:00 TS -27.0743 53.8743 main 659 659 O____P___OO___ jtwc_sh SH051952 -27.0000 54.0000 -1 -27.2971 53.4970 99 -27.0000 54.0000 TC 25 -27.0000 54.0000 1 7 165
1952005S09073 1952 1 SI MM NOT_NAMED 1952-01-15 21:00:00 TS -27.3956 53.9608 main 689 689 P____P___PP___ SH051952 -27.4000 54.1003 -1 -27.3748 53.5334 99 -27.4000 54.1003 TC 25 -27.4076 54.1093 1 7 164
1952005S09073 1952 1 SI MM NOT_NAMED 1952-01-16 00:00:00 TS -27.7291 54.0761 main 720 720 O____P___OP___ jtwc_sh SH051952 -27.8000 54.2000 -1 -27.4294 53.5607 99 -27.8000 54.2000 TC 25 -27.8121 54.2148 1 8 162
1952005S09073 1952 1 SI MM NOT_NAMED 1952-01-16 03:00:00 TS -28.1214 54.2241 main 761 761 P____P___PP___ SH051952 -28.2274 54.3278 -1 -27.4686 53.5819 99 -28.2274 54.3278 TC 25 -28.2356 54.3378 1 9 160
1952005S09073 1952 1 SI MM NOT_NAMED 1952-01-16 06:00:00 TS -28.6077 54.4308 reunion main 813 813 O____O___OO___ jtwc_sh SH051952 -28.7000 54.5000 -1 -27.5000 53.6000 99 9.90000 -28.7000 54.5000 TC 25 -28.7000 54.5000 1 12 158
1952005S09073 1952 1 SI MM NOT_NAMED 1952-01-16 09:00:00 TS -29.2344 54.7262 main 876 876 P________PP___ SH051952 -29.2275 54.7277 -1 99 -29.2275 54.7277 TC 25 -29.2482 54.7232 1 13 158
1952005S09073 1952 1 SI MM NOT_NAMED 1952-01-16 12:00:00 TS -29.8117 54.9964 main 940 940 O________OP___ jtwc_sh SH051952 -29.8000 55.0000 -1 99 -29.8000 55.0000 TC 25 -29.8351 54.9893 1 13 157
1952005S09073 1952 1 SI MM NOT_NAMED 1952-01-16 15:00:00 TS -30.4148 55.2903 main 1005 1005 P________PP___ SH051952 -30.4075 55.2925 -1 99 -30.4075 55.2925 TC 25 -30.4294 55.2860 1 13 156
1952005S09073 1952 1 SI MM NOT_NAMED 1952-01-16 18:00:00 TS -31.0000 55.6000 main 1068 1068 O________OO___ jtwc_sh SH051952 -31.0000 55.6000 -1 99 -31.0000 55.6000 TC 25 -31.0000 55.6000 7 12 155
1952005S09073 1952 1 SI MM NOT_NAMED 1952-01-16 21:00:00 TS -31.5227 55.9020 main 1125 1125 P________PP___ SH051952 -31.5224 55.8930 -1 99 -31.5224 55.8930 TC 25 -31.5233 55.9200 7 11 152
1952005S09073 1952 1 SI MM NOT_NAMED 1952-01-17 00:00:00 TS -32.0018 56.2145 main 1181 1181 O________OP___ jtwc_sh SH051952 -32.0000 56.2000 -1 99 -32.0000 56.2000 TC 25 -32.0054 56.2435 7 11 150
1952005S09073 1952 1 SI MM NOT_NAMED 1952-01-17 03:00:00 TS -32.4568 56.5495 main 1238 1238 P________PP___ SH051952 -32.4553 56.5392 -1 99 -32.4553 56.5392 TC 25 -32.4599 56.5702 7 11 147
1952005S09073 1952 1 SI MM NOT_NAMED 1952-01-17 06:00:00 TS -32.9000 56.9000 main 1290 O________OO___ jtwc_sh SH051952 -32.9000 56.9000 -1 -32.9000 56.9000 TC 25 -32.9000 56.9000 7 11 147

IBTrACS Databaseについて

本データベースは、米国NOAAが公開する1842年以降の世界の熱帯低気圧のベストトラックデータアーカイブInternational Best Track Archive for Climate Stewardship (IBTrACS)を、ウェブで閲覧しやすい形式に変換したものです。

最終更新日:2021-12-03